LIPYLIPE

Guest
Details From LIPY - FALCONARA
To LIPE - BOLOGNA
Flight Number -
Tags generated
Created
Modified
Stats Distance 105 nm / 195 km
Max Altitude 900 ft / 274 m
Waypoints 3
Social Downloads 9
Likes 0
Share VATSIM

Download

Looking for another format? Having issues loading an existing format? Contact us
Advertisement - Login to hide

Notes

Basic altitude profile: - Ascent Rate: 2500ft/min - Ascent Speed: 250kts - Cruise Altitude: 20000ft - Cruise Speed: 420kts - Descent Rate: 1500ft/min - Descent Speed: 250kts Options: - Use NATs: yes - Use PACOTS: yes - Use low airways: yes - Use high airways: yes

Route

LIPY LUTOR LIPE

ID Type Via Altitude Latitude Longitude Leg Dist Tot Dist Heading (true) Name
O LIPY APT - 0 ft / 0 m 43.61635˚ 13.36231˚ - 0 nm - FALCONARA
LUTOR FIX - 900 ft / 274 m 44.48806˚ 11.36083˚ 101 nm 101 nm 302° / 301° -
O LIPE APT - 0 ft / 0 m 44.53545˚ 11.28866˚ 4 nm 105 nm 313° / 313° BOLOGNA

Altitude Profile

Advertisement - Login to hide

LIPY

Details ICAO LIPY (AOI)
Name FALCONARA
Region Italy
Timezone Europe/Rome (UTC+2.0)
Stats Elevation 49 ft / 15 m (AMSL)
Location 43.616351° 13.362310°
Runways 1
Magnetic Variation 3.343° E

METAR

LIPY 260950Z 36010KT CAVOK 24/19 Q1019

Decode

TAF

TAF LIPY 260500Z 2606/2706 VRB05KT CAVOK BECMG 2608/2610 02012KT BECMG 2616/2618 VRB05KT

Decode

Departure Runways

ID Width Length Bearing (true) Bearing (mag) Surface Threshold Offset Overrun Length
04 148 ft / 45 m 9,711 ft / 2,960 m 44.81° 41.47° Asphalt 641 ft / 195 m 0 ft / 0 m
22 148 ft / 45 m 9,711 ft / 2,960 m 224.83° 221.49° Asphalt 492 ft / 150 m 0 ft / 0 m

LIPE

Details ICAO LIPE (BLQ)
Name BOLOGNA
Region Italy
Timezone Europe/Rome (UTC+2.0)
Stats Elevation 123 ft / 37 m (AMSL)
Location 44.535446° 11.288662°
Runways 1
Magnetic Variation 2.968° E

METAR

LIPE 261020Z VRB04KT CAVOK 27/18 Q1019

Decode

TAF

TAF LIPE 260500Z 2606/2706 VRB05KT CAVOK

Decode

Destination Runways

ID Width Length Bearing (true) Bearing (mag) Surface Threshold Offset Overrun Length
12 148 ft / 45 m 9,185 ft / 2,800 m 116.78° 113.81° Asphalt 1,007 ft / 307 m 0 ft / 0 m
30 148 ft / 45 m 9,185 ft / 2,800 m 296.81° 293.84° Asphalt 1,188 ft / 362 m 200 ft / 61 m

Approach Navaids

Runway Type Ident Frequency Range Bearing (true) Bearing (mag) Slope Elevation
12 Localiser BLN 108.90 MHz 18 nm / 33 km 116.81° 113.84° - 123 ft / 37 m (AMSL)
12 Glidescope BLN 108.90 MHz 10 nm / 19 km 116.80° 113.83° 3.00° 120 ft / 37 m (AMSL)
12 DME BLN 108.90 MHz 18 nm / 33 km - - - 131 ft / 40 m (AMSL)
30 Localiser IBBP 109.75 MHz 18 nm / 33 km 296.66° 293.69° - 123 ft / 37 m (AMSL)
30 Glidescope IBBP 109.75 MHz 10 nm / 19 km 296.88° 293.91° 3.50° 123 ft / 37 m (AMSL)
30 DME IBBP 109.75 MHz 18 nm / 33 km - - - 123 ft / 37 m (AMSL)

Popular Alternatives